createdAt,value
2019-05-07T00:01:19.395Z,19.10
2019-05-07T00:03:48.547Z,19.20
2019-05-07T00:06:17.802Z,19.33
2019-05-07T00:08:46.963Z,19.10
2019-05-07T00:11:16.811Z,19.57
2019-05-07T00:13:45.958Z,20.00
2019-05-07T00:16:15.283Z,18.63
2019-05-07T00:18:44.500Z,19.87
2019-05-07T00:21:13.765Z,19.67
2019-05-07T00:23:43.347Z,21.03
2019-05-07T00:26:13.358Z,20.27
2019-05-07T00:28:43.418Z,20.27
2019-05-07T00:31:13.222Z,22.23
2019-05-07T00:33:43.317Z,22.83
2019-05-07T00:36:23.125Z,22.30
2019-05-07T00:38:57.326Z,21.97
2019-05-07T00:41:42.674Z,22.40
2019-05-07T00:44:13.563Z,23.63
2019-05-07T00:46:42.906Z,24.10
2019-05-07T00:49:12.680Z,25.50
2019-05-07T00:51:42.494Z,25.70
2019-05-07T00:54:12.341Z,25.40
2019-05-07T00:56:42.890Z,25.93
2019-05-07T00:59:13.077Z,25.63
2019-05-07T01:01:43.216Z,24.53
2019-05-07T01:04:12.719Z,23.13
2019-05-07T01:06:42.509Z,23.80
2019-05-07T01:09:12.426Z,24.93
2019-05-07T01:11:42.947Z,23.23
2019-05-07T01:14:12.536Z,25.03
2019-05-07T01:16:42.200Z,24.00
2019-05-07T01:19:12.544Z,24.73
2019-05-07T01:21:43.234Z,23.30
2019-05-07T01:24:12.842Z,23.47
2019-05-07T01:26:42.621Z,23.67
2019-05-07T01:29:12.895Z,23.33
2019-05-07T01:31:52.543Z,24.53
2019-05-07T01:34:39.076Z,23.90
2019-05-07T01:37:08.293Z,24.00
2019-05-07T01:39:37.547Z,24.67
2019-05-07T01:42:06.768Z,23.37
2019-05-07T01:44:35.935Z,24.23
2019-05-07T01:47:05.156Z,22.33
2019-05-07T01:49:34.330Z,24.77
2019-05-07T01:52:03.902Z,23.43
2019-05-07T01:54:33.583Z,23.33
2019-05-07T01:57:03.126Z,22.07
2019-05-07T01:59:32.737Z,24.00
2019-05-07T02:02:08.375Z,23.40
2019-05-07T02:05:03.251Z,23.67
2019-05-07T02:07:39.485Z,25.07
2019-05-07T02:10:33.591Z,23.40
2019-05-07T02:13:02.822Z,24.93
2019-05-07T02:15:32.384Z,23.60
2019-05-07T02:18:02.071Z,25.50
2019-05-07T02:20:32.249Z,23.13
2019-05-07T02:23:02.771Z,25.30
2019-05-07T02:25:32.715Z,25.93
2019-05-07T02:28:02.339Z,23.73
2019-05-07T02:30:35.099Z,24.90
2019-05-07T02:33:03.696Z,26.03
2019-05-07T02:35:33.530Z,25.77
2019-05-07T02:38:13.758Z,25.67
2019-05-07T02:40:47.284Z,25.93
2019-05-07T02:43:16.439Z,26.07
2019-05-07T02:46:21.387Z,25.50
2019-05-07T02:48:42.878Z,26.37
2019-05-07T02:51:26.936Z,28.07
2019-05-07T02:54:05.056Z,27.07
2019-05-07T02:56:34.229Z,28.67
2019-05-07T02:59:04.190Z,28.27
2019-05-07T03:01:33.947Z,28.67
2019-05-07T03:04:03.711Z,29.00
2019-05-07T03:06:34.131Z,28.40
2019-05-07T03:09:04.160Z,29.57
2019-05-07T03:11:34.144Z,28.13
2019-05-07T03:14:03.752Z,28.93
2019-05-07T03:16:42.578Z,28.27
2019-05-07T03:19:04.324Z,28.87
2019-05-07T03:21:53.777Z,28.47
2019-05-07T03:24:37.259Z,28.53
2019-05-07T03:27:06.511Z,28.77
2019-05-07T03:29:37.413Z,28.23
2019-05-07T03:32:38.229Z,29.70
2019-05-07T03:35:45.818Z,27.23
2019-05-07T03:38:13.167Z,28.50
2019-05-07T03:40:44.777Z,26.90
2019-05-07T03:43:14.207Z,27.43
2019-05-07T03:46:03.626Z,27.33
2019-05-07T03:48:33.624Z,27.30
2019-05-07T03:51:03.657Z,27.43
2019-05-07T03:53:34.160Z,36.63
2019-05-07T03:56:04.317Z,29.23
2019-05-07T03:58:34.319Z,29.90
2019-05-07T04:01:04.571Z,27.60
2019-05-07T04:03:34.506Z,28.63
2019-05-07T04:06:04.347Z,28.87
2019-05-07T04:08:33.779Z,27.80
2019-05-07T04:11:03.903Z,28.13
2019-05-07T04:13:33.913Z,28.77
2019-05-07T04:16:04.186Z,29.20
2019-05-07T04:18:34.167Z,29.47
2019-05-07T04:21:04.074Z,29.43
2019-05-07T04:23:34.500Z,29.83
2019-05-07T04:26:25.368Z,29.63
2019-05-07T04:29:05.604Z,30.97
2019-05-07T04:31:42.933Z,30.23
2019-05-07T04:34:16.550Z,29.47
2019-05-07T04:36:48.137Z,30.37
2019-05-07T04:39:17.361Z,28.93
2019-05-07T04:41:46.688Z,27.57
2019-05-07T04:44:15.931Z,28.57
2019-05-07T04:46:48.154Z,29.33
2019-05-07T04:49:16.154Z,28.17
2019-05-07T04:52:03.679Z,28.40
2019-05-07T04:54:32.939Z,29.40
2019-05-07T04:57:03.690Z,27.83
2019-05-07T04:59:33.248Z,29.53
2019-05-07T05:02:16.735Z,28.13
2019-05-07T05:04:46.099Z,28.83
2019-05-07T05:07:15.423Z,30.67
2019-05-07T05:09:44.611Z,29.37
2019-05-07T05:12:13.780Z,30.40
2019-05-07T05:14:43.581Z,28.90
2019-05-07T05:17:13.329Z,27.73
2019-05-07T05:19:43.861Z,28.27
2019-05-07T05:22:22.756Z,28.57
2019-05-07T05:25:11.986Z,27.70
2019-05-07T05:27:42.847Z,27.97
2019-05-07T05:30:14.634Z,28.33
2019-05-07T05:32:43.783Z,28.27
2019-05-07T05:35:13.335Z,26.67
2019-05-07T05:37:43.001Z,27.13
2019-05-07T05:40:12.784Z,28.73
2019-05-07T05:42:47.797Z,29.80
2019-05-07T05:45:35.017Z,29.57
2019-05-07T05:48:08.211Z,28.17
2019-05-07T05:50:54.521Z,28.73
2019-05-07T05:53:32.530Z,26.77
2019-05-07T05:56:03.743Z,28.57
2019-05-07T05:58:52.727Z,28.23
2019-05-07T06:01:32.259Z,27.53
2019-05-07T06:04:08.904Z,28.00
2019-05-07T06:07:07.669Z,28.17
2019-05-07T06:09:35.524Z,28.23
2019-05-07T06:12:29.669Z,29.07
2019-05-07T06:15:07.291Z,27.30
2019-05-07T06:17:58.090Z,28.37
2019-05-07T06:20:52.374Z,27.03
2019-05-07T06:23:36.231Z,26.80
2019-05-07T06:26:05.965Z,28.43
2019-05-07T06:28:35.284Z,27.43
2019-05-07T06:31:04.604Z,27.63
2019-05-07T06:33:33.770Z,25.57
2019-05-07T06:36:03.020Z,24.00
2019-05-07T06:38:37.206Z,20.83
2019-05-07T06:41:28.407Z,21.50
2019-05-07T06:44:03.923Z,21.77
2019-05-07T06:46:33.141Z,22.57
2019-05-07T06:49:02.335Z,22.80
2019-05-07T06:51:32.860Z,22.60
2019-05-07T06:54:02.778Z,22.97
2019-05-07T06:56:32.644Z,22.30
2019-05-07T06:59:09.365Z,23.23
2019-05-07T07:01:47.043Z,21.77
2019-05-07T07:04:33.630Z,22.53
2019-05-07T07:07:42.008Z,21.87
2019-05-07T07:10:38.646Z,21.13
2019-05-07T07:13:07.898Z,20.50
2019-05-07T07:15:37.134Z,20.47
2019-05-07T07:18:06.403Z,21.33
2019-05-07T07:20:35.635Z,20.50
2019-05-07T07:23:04.867Z,21.63
2019-05-07T07:25:34.115Z,21.60
2019-05-07T07:28:03.355Z,21.70
2019-05-07T07:30:39.491Z,21.30
2019-05-07T07:33:09.031Z,21.53
2019-05-07T07:35:38.287Z,23.17
2019-05-07T07:38:35.838Z,22.60
2019-05-07T07:41:16.189Z,22.23
2019-05-07T07:43:45.366Z,23.00
2019-05-07T07:46:16.550Z,22.53
2019-05-07T07:48:45.552Z,23.07
2019-05-07T07:51:15.009Z,22.20
2019-05-07T07:53:44.279Z,23.43
2019-05-07T07:56:48.395Z,22.80
2019-05-07T07:59:37.627Z,22.47
2019-05-07T08:02:15.126Z,22.00
2019-05-07T08:04:44.391Z,22.87
2019-05-07T08:07:13.559Z,21.83
2019-05-07T08:09:43.006Z,20.90
2019-05-07T08:12:12.820Z,20.90
2019-05-07T08:14:42.895Z,19.43
2019-05-07T08:17:13.008Z,19.73
2019-05-07T08:19:43.087Z,17.93
2019-05-07T08:22:12.521Z,16.27
2019-05-07T08:24:42.636Z,14.93
2019-05-07T08:27:12.816Z,14.87
2019-05-07T08:29:43.232Z,11.73
2019-05-07T08:32:42.578Z,13.60
2019-05-07T08:35:36.732Z,13.97
2019-05-07T08:38:05.958Z,12.27
2019-05-07T08:40:35.220Z,11.23
2019-05-07T08:43:04.395Z,13.47
2019-05-07T08:45:52.402Z,12.13
2019-05-07T08:48:26.584Z,14.77
2019-05-07T08:50:55.843Z,10.07
2019-05-07T08:53:24.992Z,13.50
2019-05-07T08:55:54.231Z,9.93
2019-05-07T08:58:23.550Z,12.30
2019-05-07T09:00:52.818Z,9.27
2019-05-07T09:03:39.707Z,11.03
2019-05-07T09:06:08.988Z,11.37
2019-05-07T09:08:38.226Z,11.60
2019-05-07T09:11:07.398Z,11.47
2019-05-07T09:13:36.557Z,10.97
2019-05-07T09:16:05.947Z,11.47
2019-05-07T09:18:35.278Z,9.07
2019-05-07T09:21:04.645Z,11.10
2019-05-07T09:23:33.922Z,9.93
2019-05-07T09:26:03.215Z,11.10
2019-05-07T09:28:54.062Z,11.73
2019-05-07T09:31:32.113Z,12.00
2019-05-07T09:34:02.678Z,11.47
2019-05-07T09:36:48.607Z,11.20
2019-05-07T09:39:17.763Z,20.80
2019-05-07T09:41:47.034Z,12.17
2019-05-07T09:44:16.316Z,11.30
2019-05-07T09:46:46.729Z,11.37
2019-05-07T09:49:16.087Z,11.10
2019-05-07T09:51:45.263Z,10.30
2019-05-07T09:54:14.451Z,10.30
2019-05-07T09:56:43.717Z,10.80
2019-05-07T09:59:12.863Z,7.60
2019-05-07T10:01:42.230Z,9.87
2019-05-07T10:04:11.379Z,9.27
2019-05-07T10:06:42.356Z,9.07
2019-05-07T10:09:12.111Z,9.67
2019-05-07T10:11:56.788Z,11.20
2019-05-07T10:14:26.324Z,10.47
2019-05-07T10:17:11.970Z,10.07
2019-05-07T10:19:41.720Z,9.10
2019-05-07T10:22:12.624Z,9.87
2019-05-07T10:24:42.032Z,9.70
2019-05-07T10:27:12.665Z,9.80
2019-05-07T10:29:42.806Z,10.70
2019-05-07T10:32:12.824Z,10.90
2019-05-07T10:34:42.317Z,10.57
2019-05-07T10:37:12.143Z,10.83
2019-05-07T10:39:43.007Z,11.47
2019-05-07T10:42:12.500Z,11.03
2019-05-07T10:44:47.835Z,12.60
2019-05-07T10:47:39.074Z,12.67
2019-05-07T10:50:17.646Z,14.70
2019-05-07T10:52:47.180Z,14.33
2019-05-07T10:55:16.547Z,14.43
2019-05-07T10:57:45.727Z,13.83
2019-05-07T11:00:17.137Z,14.50
2019-05-07T11:02:46.513Z,13.27
2019-05-07T11:05:15.958Z,13.00
2019-05-07T11:07:45.211Z,13.50
2019-05-07T11:10:14.759Z,12.93
2019-05-07T11:12:44.009Z,12.30
2019-05-07T11:15:13.447Z,10.87
2019-05-07T11:18:04.822Z,11.30
2019-05-07T11:20:46.456Z,10.33
2019-05-07T11:23:05.056Z,10.57
2019-05-07T11:25:34.293Z,10.73
2019-05-07T11:28:04.883Z,10.83
2019-05-07T11:30:34.238Z,11.03
2019-05-07T11:33:03.582Z,9.40
2019-05-07T11:35:32.839Z,13.17
2019-05-07T11:38:10.954Z,10.50
2019-05-07T11:40:34.833Z,12.90
2019-05-07T11:43:25.813Z,9.43
2019-05-07T11:46:04.663Z,9.87
2019-05-07T11:48:36.424Z,9.47
2019-05-07T11:51:15.383Z,10.83
2019-05-07T11:54:02.259Z,11.47
2019-05-07T11:56:32.794Z,11.50
2019-05-07T11:59:02.696Z,11.70
2019-05-07T12:01:43.524Z,12.20
2019-05-07T12:04:03.355Z,12.90
2019-05-07T12:06:32.667Z,12.03
2019-05-07T12:09:03.010Z,13.20
2019-05-07T12:11:32.478Z,12.77
2019-05-07T12:14:02.155Z,12.53
2019-05-07T12:16:32.209Z,12.87
2019-05-07T12:19:02.232Z,11.80
2019-05-07T12:21:32.842Z,10.60
2019-05-07T12:24:02.287Z,7.50
2019-05-07T12:26:33.510Z,9.73
2019-05-07T12:29:02.836Z,7.40
2019-05-07T12:31:55.630Z,8.27
2019-05-07T12:34:35.428Z,7.30
2019-05-07T12:37:04.767Z,8.47
2019-05-07T12:39:34.028Z,7.30
2019-05-07T12:42:03.577Z,9.27
2019-05-07T12:44:32.954Z,7.80
2019-05-07T12:47:02.668Z,9.03
2019-05-07T12:49:32.464Z,7.50
2019-05-07T12:52:12.629Z,9.83
2019-05-07T12:55:03.832Z,9.70
2019-05-07T12:57:33.146Z,7.53
2019-05-07T13:00:22.943Z,8.63
2019-05-07T13:03:10.079Z,7.57
2019-05-07T13:05:41.614Z,9.83
2019-05-07T13:08:12.241Z,7.70
2019-05-07T13:10:42.870Z,10.50
2019-05-07T13:13:12.406Z,7.70
2019-05-07T13:15:43.359Z,9.90
2019-05-07T13:18:12.781Z,8.10
2019-05-07T13:20:42.191Z,10.40
2019-05-07T13:23:11.975Z,8.37
2019-05-07T13:25:42.915Z,9.33
2019-05-07T13:28:12.433Z,8.23
2019-05-07T13:30:43.786Z,10.73
2019-05-07T13:33:15.091Z,8.80
2019-05-07T13:35:44.619Z,10.37
2019-05-07T13:38:38.138Z,7.60
2019-05-07T13:41:14.807Z,10.10
2019-05-07T13:44:22.887Z,9.13
2019-05-07T13:47:12.492Z,9.63
2019-05-07T13:49:42.806Z,11.70
2019-05-07T13:52:12.111Z,9.13
2019-05-07T13:54:41.910Z,11.43
2019-05-07T13:57:12.017Z,9.97
2019-05-07T13:59:42.448Z,11.30
2019-05-07T14:02:15.364Z,9.43
2019-05-07T14:04:43.890Z,11.23
2019-05-07T14:07:13.143Z,11.90
2019-05-07T14:09:42.369Z,9.97
2019-05-07T14:12:12.314Z,11.70
2019-05-07T14:14:42.620Z,9.50
2019-05-07T14:17:12.651Z,11.30
2019-05-07T14:19:42.388Z,8.73
2019-05-07T14:22:16.423Z,10.30
2019-05-07T14:24:42.542Z,10.83
2019-05-07T14:27:11.818Z,8.50
2019-05-07T14:29:42.411Z,9.90
2019-05-07T14:32:29.888Z,6.80
2019-05-07T14:35:12.302Z,9.53
2019-05-07T14:37:52.363Z,8.43
2019-05-07T14:40:22.315Z,7.03
2019-05-07T14:42:59.036Z,8.87
2019-05-07T14:45:28.272Z,7.77
2019-05-07T14:47:57.521Z,9.90
2019-05-07T14:50:45.847Z,9.20
2019-05-07T14:53:15.063Z,8.90
2019-05-07T14:55:44.302Z,7.43
2019-05-07T14:58:13.561Z,9.30
2019-05-07T15:00:42.906Z,7.53
2019-05-07T15:03:12.582Z,8.67
2019-05-07T15:05:42.386Z,8.30
2019-05-07T15:08:14.354Z,8.83
2019-05-07T15:10:42.690Z,8.13
2019-05-07T15:13:12.711Z,8.17
2019-05-07T15:15:42.190Z,8.60
2019-05-07T15:18:20.283Z,9.70
2019-05-07T15:20:49.502Z,9.10
2019-05-07T15:23:28.941Z,8.77
2019-05-07T15:26:01.995Z,7.73
2019-05-07T15:28:32.167Z,9.10
2019-05-07T15:31:12.084Z,9.43
2019-05-07T15:33:41.826Z,9.40
2019-05-07T15:36:12.004Z,8.40
2019-05-07T15:38:42.937Z,10.47
2019-05-07T15:41:12.466Z,10.97
2019-05-07T15:43:45.796Z,11.50
2019-05-07T15:46:13.208Z,11.47
2019-05-07T15:48:42.449Z,11.53
2019-05-07T15:51:11.970Z,12.07
2019-05-07T15:53:52.231Z,12.87
2019-05-07T15:56:21.963Z,12.33
2019-05-07T15:58:51.722Z,12.17
2019-05-07T16:01:22.155Z,12.40
2019-05-07T16:03:54.715Z,13.30
2019-05-07T16:06:22.554Z,13.00
2019-05-07T16:08:58.124Z,12.40
2019-05-07T16:11:27.342Z,13.23
2019-05-07T16:14:27.539Z,12.87
2019-05-07T16:17:03.978Z,11.63
2019-05-07T16:19:33.295Z,12.10
2019-05-07T16:22:07.217Z,12.60
2019-05-07T16:24:36.376Z,12.30
2019-05-07T16:27:05.619Z,12.17
2019-05-07T16:29:35.902Z,12.17
2019-05-07T16:32:05.382Z,12.03
2019-05-07T16:34:34.691Z,11.83
2019-05-07T16:37:07.309Z,11.37
2019-05-07T16:39:34.974Z,12.27
2019-05-07T16:42:04.172Z,12.53
2019-05-07T16:44:33.318Z,11.77
2019-05-07T16:47:02.906Z,12.57
2019-05-07T16:49:32.101Z,12.00
2019-05-07T16:52:01.912Z,13.17
2019-05-07T16:54:31.348Z,12.27
2019-05-07T16:57:22.519Z,12.37
2019-05-07T16:59:52.289Z,13.07
2019-05-07T17:02:25.624Z,13.30
2019-05-07T17:05:12.695Z,12.73
2019-05-07T17:08:07.137Z,13.30
2019-05-07T17:10:36.400Z,12.97
2019-05-07T17:13:05.718Z,14.10
2019-05-07T17:15:40.126Z,14.10
2019-05-07T17:18:09.338Z,13.87
2019-05-07T17:20:38.567Z,14.00
2019-05-07T17:23:07.819Z,15.13
2019-05-07T17:25:36.976Z,13.80
2019-05-07T17:28:06.451Z,13.50
2019-05-07T17:30:37.613Z,14.23
2019-05-07T17:33:06.817Z,13.60
2019-05-07T17:35:36.071Z,13.10
2019-05-07T17:38:09.519Z,13.87
2019-05-07T17:40:36.422Z,12.90
2019-05-07T17:43:05.614Z,13.67
2019-05-07T17:45:34.850Z,13.40
2019-05-07T17:48:04.199Z,12.67
2019-05-07T17:50:39.536Z,13.20
2019-05-07T17:53:08.911Z,13.50
2019-05-07T17:55:38.259Z,12.47
2019-05-07T17:58:07.443Z,12.53
2019-05-07T18:00:37.372Z,12.87
2019-05-07T18:03:25.574Z,11.47
2019-05-07T18:05:54.799Z,11.70
2019-05-07T18:08:23.994Z,11.83
2019-05-07T18:10:53.232Z,12.00
2019-05-07T18:13:22.486Z,11.57
2019-05-07T18:15:52.104Z,11.23
2019-05-07T18:18:22.196Z,10.67
2019-05-07T18:20:51.602Z,10.83
2019-05-07T18:23:22.286Z,11.13
2019-05-07T18:25:53.493Z,10.57
2019-05-07T18:28:23.346Z,10.90
2019-05-07T18:30:52.597Z,11.40
2019-05-07T18:33:37.901Z,11.03
2019-05-07T18:36:07.242Z,10.20
2019-05-07T18:38:36.398Z,10.97
2019-05-07T18:41:05.658Z,10.10
2019-05-07T18:43:34.866Z,10.97
2019-05-07T18:46:04.235Z,10.47
2019-05-07T18:48:33.443Z,10.00
2019-05-07T18:51:02.783Z,10.20
2019-05-07T18:53:32.019Z,10.83
2019-05-07T18:56:01.727Z,12.53
2019-05-07T18:58:31.938Z,11.43
2019-05-07T19:01:04.569Z,9.60
2019-05-07T19:03:33.807Z,9.97
2019-05-07T19:06:03.154Z,10.10
2019-05-07T19:08:33.303Z,9.30
2019-05-07T19:11:05.783Z,8.57
2019-05-07T19:13:34.412Z,8.70
2019-05-07T19:16:03.663Z,7.90
2019-05-07T19:18:32.882Z,7.93
2019-05-07T19:21:02.125Z,7.97
2019-05-07T19:23:33.036Z,8.40
2019-05-07T19:26:02.561Z,8.43
2019-05-07T19:28:32.947Z,8.70
2019-05-07T19:31:02.362Z,8.83
2019-05-07T19:33:32.531Z,9.17
2019-05-07T19:36:02.130Z,8.93
2019-05-07T19:38:32.336Z,8.83
2019-05-07T19:41:02.279Z,9.20
2019-05-07T19:43:32.581Z,9.13
2019-05-07T19:46:02.945Z,8.73
2019-05-07T19:48:32.463Z,7.60
2019-05-07T19:51:02.956Z,8.83
2019-05-07T19:53:32.800Z,8.90
2019-05-07T19:56:21.890Z,8.67
2019-05-07T19:58:52.651Z,8.63
2019-05-07T20:01:42.553Z,9.10
2019-05-07T20:04:13.307Z,9.33
2019-05-07T20:06:42.993Z,10.87
2019-05-07T20:09:15.670Z,9.43
2019-05-07T20:11:46.455Z,8.57
2019-05-07T20:14:15.611Z,8.07
2019-05-07T20:16:44.931Z,9.13
2019-05-07T20:19:14.147Z,8.87
2019-05-07T20:21:43.315Z,8.60
2019-05-07T20:24:12.659Z,9.70
2019-05-07T20:26:42.991Z,8.50
2019-05-07T20:29:12.610Z,9.10
2019-05-07T20:31:42.394Z,8.27
2019-05-07T20:34:13.076Z,8.63
2019-05-07T20:36:42.848Z,8.70
2019-05-07T20:39:12.900Z,9.67
2019-05-07T20:41:42.938Z,12.07
2019-05-07T20:44:12.376Z,12.30
2019-05-07T20:46:42.251Z,12.17
2019-05-07T20:49:13.156Z,10.47
2019-05-07T20:51:42.650Z,12.17
2019-05-07T20:54:24.419Z,10.30
2019-05-07T20:56:59.130Z,12.57
2019-05-07T20:59:28.436Z,10.90
2019-05-07T21:01:57.828Z,9.63
2019-05-07T21:04:27.142Z,12.17
2019-05-07T21:06:56.458Z,8.83
2019-05-07T21:09:25.603Z,9.53
2019-05-07T21:11:54.871Z,9.07
2019-05-07T21:14:24.055Z,8.53
2019-05-07T21:16:53.268Z,8.87
2019-05-07T21:19:22.586Z,9.20
2019-05-07T21:21:51.782Z,9.33
2019-05-07T21:24:22.572Z,9.20
2019-05-07T21:26:53.046Z,11.37
2019-05-07T21:29:22.651Z,14.47
2019-05-07T21:31:52.435Z,11.63
2019-05-07T21:34:23.041Z,12.23
2019-05-07T21:36:52.527Z,11.77
2019-05-07T21:39:22.316Z,8.93
2019-05-07T21:41:52.019Z,9.50
2019-05-07T21:44:25.001Z,8.90
2019-05-07T21:46:52.367Z,9.03
2019-05-07T21:49:22.741Z,8.40
2019-05-07T21:51:54.463Z,7.60
2019-05-07T21:54:45.434Z,8.97
2019-05-07T21:57:52.391Z,8.43
2019-05-07T22:00:42.444Z,8.87
2019-05-07T22:03:14.878Z,9.43
2019-05-07T22:05:44.433Z,9.03
2019-05-07T22:08:13.723Z,8.43
2019-05-07T22:10:42.892Z,8.50
2019-05-07T22:13:12.486Z,10.17
2019-05-07T22:15:42.356Z,9.27
2019-05-07T22:18:12.078Z,10.10
2019-05-07T22:20:42.654Z,10.93
2019-05-07T22:23:11.972Z,11.80
2019-05-07T22:25:42.164Z,12.97
2019-05-07T22:28:13.314Z,11.97
2019-05-07T22:31:02.300Z,11.80
2019-05-07T22:33:52.634Z,10.60
2019-05-07T22:36:22.112Z,9.50
2019-05-07T22:38:52.624Z,9.93
2019-05-07T22:41:22.553Z,8.57
2019-05-07T22:43:51.939Z,9.47
2019-05-07T22:46:22.330Z,9.07
2019-05-07T22:48:51.639Z,8.93
2019-05-07T22:51:22.762Z,9.03
2019-05-07T22:53:51.954Z,8.73
2019-05-07T22:56:34.205Z,10.17
2019-05-07T22:58:53.468Z,9.87
2019-05-07T23:01:22.820Z,10.70
2019-05-07T23:03:53.999Z,10.37
2019-05-07T23:06:23.358Z,10.10
2019-05-07T23:08:53.102Z,10.53
2019-05-07T23:11:23.031Z,9.70
2019-05-07T23:13:54.867Z,10.43
2019-05-07T23:16:23.369Z,9.77
2019-05-07T23:18:52.678Z,10.07
2019-05-07T23:21:24.244Z,10.63
2019-05-07T23:23:52.884Z,9.50
2019-05-07T23:26:23.381Z,10.30
2019-05-07T23:28:52.722Z,11.37
2019-05-07T23:31:22.866Z,9.83
2019-05-07T23:33:52.469Z,10.43
2019-05-07T23:36:22.466Z,13.37
2019-05-07T23:38:52.256Z,21.43
2019-05-07T23:41:33.833Z,19.53
2019-05-07T23:44:19.875Z,19.17
2019-05-07T23:46:49.104Z,10.63
2019-05-07T23:49:18.355Z,9.90
2019-05-07T23:51:47.489Z,9.53
2019-05-07T23:54:16.735Z,9.70
2019-05-07T23:56:45.903Z,9.57
2019-05-07T23:59:15.281Z,10.30
